Time;durP1;ratioP1;P1;durP2;ratioP2;P2;SDS_P1;SDS_P2;PMS_P1;PMS_P2;Temp;Humidity;BMP_temperature;BMP_pressure;BME280_temperature;BME280_humidity;BME280_pressure;Samples;Min_cycle;Max_cycle;Signal;HPM_P1;HPM_P2
2021/10/18 00:00:00;;;;;;;14.85;8.82;;;11.50;99.90;;;;;;5027361;28;38783;-80
2021/10/18 00:02:26;;;;;;;12.77;9.50;;;11.50;99.90;;;;;;5030614;28;46447;-79
2021/10/18 00:04:52;;;;;;;15.85;8.88;;;11.40;99.90;;;;;;5023803;28;38027;-79
2021/10/18 00:07:21;;;;;;;15.75;9.05;;;11.40;99.90;;;;;;5036168;28;39201;-79
2021/10/18 00:09:47;;;;;;;14.32;9.20;;;11.40;99.90;;;;;;5042052;28;37868;-79
2021/10/18 00:12:13;;;;;;;17.83;9.55;;;11.40;99.90;;;;;;5043008;28;37204;-79
2021/10/18 00:14:39;;;;;;;13.07;8.07;;;11.40;99.90;;;;;;5020759;28;37415;-80
2021/10/18 00:17:05;;;;;;;12.38;8.98;;;11.40;99.90;;;;;;5024727;28;39171;-80
2021/10/18 00:19:31;;;;;;;13.40;9.77;;;11.40;99.90;;;;;;5022131;28;39483;-79
2021/10/18 00:21:57;;;;;;;15.90;10.63;;;11.40;99.90;;;;;;5042199;28;37784;-79
2021/10/18 00:24:23;;;;;;;14.10;9.40;;;11.40;99.90;;;;;;5021254;28;39766;-80
2021/10/18 00:26:49;;;;;;;15.30;9.68;;;11.40;99.90;;;;;;5031543;28;38493;-79
2021/10/18 00:29:15;;;;;;;16.60;9.70;;;11.40;99.90;;;;;;5015406;28;37756;-80
2021/10/18 00:31:42;;;;;;;14.43;9.45;;;11.40;99.90;;;;;;5043718;28;37998;-80
2021/10/18 00:34:08;;;;;;;19.55;9.55;;;11.40;99.90;;;;;;5042932;28;39027;-80
2021/10/18 00:36:34;;;;;;;14.38;9.43;;;11.40;99.90;;;;;;5017105;28;37597;-79
2021/10/18 00:39:00;;;;;;;17.13;9.68;;;11.50;99.90;;;;;;5021228;28;39841;-79
2021/10/18 00:41:26;;;;;;;13.93;9.35;;;11.50;99.90;;;;;;5024613;28;38460;-79
2021/10/18 00:43:55;;;;;;;16.48;10.80;;;11.50;99.90;;;;;;5047773;28;38867;-80
2021/10/18 00:46:22;;;;;;;14.98;8.85;;;11.50;99.90;;;;;;5023599;28;39925;-80
2021/10/18 00:48:53;;;;;;;12.85;8.82;;;11.50;99.90;;;;;;5046155;28;38190;-80
2021/10/18 00:51:22;;;;;;;16.45;9.63;;;11.50;99.90;;;;;;5042774;28;38282;-80
2021/10/18 00:53:49;;;;;;;13.90;8.80;;;11.50;99.90;;;;;;5042369;28;38901;-79
2021/10/18 00:56:16;;;;;;;14.55;9.75;;;11.60;99.90;;;;;;5040282;28;38610;-79
2021/10/18 00:58:43;;;;;;;15.65;9.38;;;11.60;99.90;;;;;;5021238;28;38001;-80
2021/10/18 01:01:10;;;;;;;13.80;9.98;;;11.60;99.90;;;;;;5027507;28;37766;-80
2021/10/18 01:03:37;;;;;;;14.23;9.73;;;11.50;99.90;;;;;;5027564;28;40461;-79
2021/10/18 01:06:03;;;;;;;17.65;9.45;;;11.50;99.90;;;;;;5042852;28;38526;-79
2021/10/18 01:08:29;;;;;;;14.40;9.05;;;11.40;99.90;;;;;;5043881;28;38060;-79
2021/10/18 01:10:55;;;;;;;13.57;9.63;;;11.40;99.90;;;;;;5027523;28;38945;-80
2021/10/18 01:13:22;;;;;;;14.02;10.15;;;11.40;99.90;;;;;;5025570;28;41469;-79
2021/10/18 01:15:48;;;;;;;18.67;11.02;;;11.40;99.90;;;;;;5039837;28;38597;-80
2021/10/18 01:18:15;;;;;;;15.30;9.93;;;11.40;99.90;;;;;;5044198;28;38059;-80
2021/10/18 01:20:42;;;;;;;15.57;10.38;;;11.40;99.90;;;;;;5006149;28;38289;-80
2021/10/18 01:23:10;;;;;;;14.25;9.43;;;11.30;99.90;;;;;;5040433;28;38721;-80
2021/10/18 01:25:37;;;;;;;18.00;11.00;;;11.30;99.90;;;;;;5040054;28;39793;-79
2021/10/18 01:28:04;;;;;;;12.32;9.88;;;11.40;99.90;;;;;;5024942;28;39007;-79
2021/10/18 01:30:31;;;;;;;16.55;10.45;;;11.30;99.90;;;;;;5023578;28;38088;-79
2021/10/18 01:32:57;;;;;;;14.90;10.68;;;11.30;99.90;;;;;;5023692;28;39930;-78
2021/10/18 01:35:24;;;;;;;19.05;10.18;;;11.30;99.90;;;;;;5038697;28;40252;-79
2021/10/18 01:37:51;;;;;;;13.88;11.05;;;11.20;99.90;;;;;;5045457;28;38449;-80
2021/10/18 01:40:20;;;;;;;16.60;10.55;;;11.10;99.90;;;;;;5029729;28;39184;-79
2021/10/18 01:42:47;;;;;;;17.92;10.75;;;11.10;99.90;;;;;;5025222;28;40201;-79
2021/10/18 01:45:14;;;;;;;17.98;12.40;;;11.00;99.90;;;;;;5041847;28;37222;-79
2021/10/18 01:47:41;;;;;;;21.08;11.25;;;10.90;99.90;;;;;;5025671;28;38058;-79
2021/10/18 01:50:10;;;;;;;13.73;11.32;;;10.90;99.90;;;;;;5019482;28;38047;-79
2021/10/18 01:52:36;;;;;;;19.52;11.73;;;10.90;99.90;;;;;;5040245;28;40707;-80
2021/10/18 01:55:03;;;;;;;18.30;12.52;;;10.90;99.90;;;;;;5044069;28;38386;-80
2021/10/18 01:57:29;;;;;;;18.55;11.57;;;10.80;99.90;;;;;;5023765;28;38559;-80
2021/10/18 01:59:55;;;;;;;18.80;12.40;;;10.80;99.90;;;;;;5024867;28;38349;-80
2021/10/18 02:02:21;;;;;;;16.58;11.63;;;10.80;99.90;;;;;;5022393;28;39232;-79
2021/10/18 02:04:47;;;;;;;23.02;13.10;;;10.70;99.90;;;;;;5021885;28;38940;-79
2021/10/18 02:07:13;;;;;;;22.75;12.93;;;10.70;99.90;;;;;;5021216;28;39515;-79
2021/10/18 02:09:39;;;;;;;20.67;13.48;;;10.70;99.90;;;;;;5023545;28;38918;-79
2021/10/18 02:12:06;;;;;;;21.35;13.35;;;10.70;99.90;;;;;;5044542;28;39485;-80
2021/10/18 02:14:32;;;;;;;20.50;12.80;;;10.60;99.90;;;;;;5042619;28;38325;-80
2021/10/18 02:16:58;;;;;;;23.92;13.80;;;10.60;99.90;;;;;;5042818;28;38733;-80
2021/10/18 02:19:24;;;;;;;23.23;14.40;;;10.60;99.90;;;;;;5045412;28;37343;-79
2021/10/18 02:21:50;;;;;;;20.20;13.05;;;10.50;99.90;;;;;;5043210;28;39625;-79
2021/10/18 02:24:16;;;;;;;18.48;13.82;;;10.40;99.90;;;;;;5042278;28;38124;-79
2021/10/18 02:26:42;;;;;;;18.38;13.18;;;10.40;99.90;;;;;;5047462;28;37870;-79
2021/10/18 02:29:09;;;;;;;22.77;12.77;;;10.40;99.90;;;;;;5025286;28;37584;-79
2021/10/18 02:31:36;;;;;;;19.65;13.07;;;10.40;99.90;;;;;;5045202;28;39566;-80
2021/10/18 02:34:03;;;;;;;25.33;14.60;;;10.30;99.90;;;;;;5025270;28;39255;-78
2021/10/18 02:36:30;;;;;;;21.25;15.98;;;10.20;99.90;;;;;;5029574;28;38665;-79
2021/10/18 02:38:57;;;;;;;17.25;13.55;;;10.20;99.90;;;;;;5044865;28;37991;-80
2021/10/18 02:41:23;;;;;;;19.80;13.73;;;10.10;99.90;;;;;;5040014;28;40449;-79
2021/10/18 02:43:50;;;;;;;21.92;13.73;;;10.10;99.90;;;;;;5044986;28;39703;-79
2021/10/18 02:46:16;;;;;;;20.00;14.07;;;10.00;99.90;;;;;;5020636;28;38844;-79
2021/10/18 02:48:42;;;;;;;17.92;13.93;;;9.90;99.90;;;;;;5027222;28;38626;-79
2021/10/18 02:51:08;;;;;;;20.52;14.40;;;9.90;99.90;;;;;;5024096;28;39893;-79
2021/10/18 02:53:34;;;;;;;20.52;15.25;;;9.80;99.90;;;;;;5024018;28;37892;-79
2021/10/18 02:56:00;;;;;;;27.85;16.35;;;9.70;99.90;;;;;;5018034;28;38796;-79
2021/10/18 02:58:26;;;;;;;20.02;15.10;;;9.60;99.90;;;;;;5028038;28;37647;-79
2021/10/18 03:00:52;;;;;;;21.17;14.10;;;9.60;99.90;;;;;;5043626;28;38751;-79
2021/10/18 03:03:19;;;;;;;26.15;15.88;;;9.40;99.90;;;;;;5044962;28;39319;-80
2021/10/18 03:05:45;;;;;;;21.13;15.30;;;9.30;99.90;;;;;;5033964;28;39965;-79
2021/10/18 03:08:11;;;;;;;20.63;13.32;;;9.20;99.90;;;;;;5023776;28;38993;-79
2021/10/18 03:10:40;;;;;;;26.25;15.93;;;9.10;99.90;;;;;;5038481;28;37712;-79
2021/10/18 03:13:07;;;;;;;19.23;15.07;;;9.10;99.90;;;;;;5024986;28;37773;-79
2021/10/18 03:15:34;;;;;;;23.23;15.75;;;9.00;99.90;;;;;;5042131;28;39102;-80
2021/10/18 03:18:00;;;;;;;20.87;13.90;;;8.90;99.90;;;;;;5043958;28;37129;-79
2021/10/18 03:20:26;;;;;;;23.10;15.37;;;8.90;99.90;;;;;;5024276;28;37745;-79
2021/10/18 03:22:53;;;;;;;21.10;14.70;;;8.80;99.90;;;;;;5046272;28;38065;-79
2021/10/18 03:25:19;;;;;;;25.53;15.90;;;8.80;99.90;;;;;;5043309;28;38014;-77
2021/10/18 03:27:46;;;;;;;22.57;15.70;;;8.70;99.90;;;;;;5045083;28;38302;-79
2021/10/18 03:30:12;;;;;;;22.83;16.83;;;8.60;99.90;;;;;;5043405;28;39189;-79
2021/10/18 03:32:39;;;;;;;26.80;18.03;;;8.60;99.90;;;;;;5046445;28;39627;-79
2021/10/18 03:35:06;;;;;;;21.80;14.83;;;8.60;99.90;;;;;;5041328;28;38218;-79
2021/10/18 03:37:34;;;;;;;25.63;16.90;;;8.50;99.90;;;;;;5027635;28;37292;-79
2021/10/18 03:40:00;;;;;;;23.23;17.90;;;8.50;99.90;;;;;;5046256;28;38835;-79
2021/10/18 03:42:26;;;;;;;25.53;16.23;;;8.50;99.90;;;;;;5043564;28;48701;-79
2021/10/18 03:44:53;;;;;;;24.40;17.87;;;8.40;99.90;;;;;;5055350;28;38439;-76
2021/10/18 03:47:19;;;;;;;30.47;19.87;;;8.40;99.90;;;;;;5025205;28;39205;-79
2021/10/18 03:49:45;;;;;;;28.33;17.93;;;8.40;99.90;;;;;;5043474;28;40272;-79
2021/10/18 03:52:11;;;;;;;25.93;18.00;;;8.40;99.90;;;;;;5012885;28;39171;-79
2021/10/18 03:54:37;;;;;;;30.80;21.27;;;8.30;99.90;;;;;;5020728;28;39024;-76
2021/10/18 03:57:04;;;;;;;35.83;22.20;;;8.40;99.90;;;;;;5026446;28;38894;-79
2021/10/18 03:59:30;;;;;;;35.13;22.17;;;8.30;99.90;;;;;;5042833;28;38867;-79
2021/10/18 04:01:56;;;;;;;24.20;18.80;;;8.40;99.90;;;;;;5039218;28;39282;-79
2021/10/18 04:04:22;;;;;;;31.07;21.80;;;8.40;99.90;;;;;;5008377;28;38576;-76
2021/10/18 04:06:48;;;;;;;28.00;19.77;;;8.40;99.90;;;;;;5036536;28;37033;-76
2021/10/18 04:09:14;;;;;;;32.77;21.07;;;8.40;99.90;;;;;;5020306;28;38753;-77
2021/10/18 04:11:41;;;;;;;31.77;22.10;;;8.40;99.90;;;;;;5037955;28;39482;-78
2021/10/18 04:14:08;;;;;;;32.60;22.80;;;8.40;99.90;;;;;;5023524;28;39212;-77
2021/10/18 04:16:35;;;;;;;30.03;21.73;;;8.40;99.90;;;;;;5041592;28;38311;-77
2021/10/18 04:19:01;;;;;;;30.37;21.63;;;8.50;99.90;;;;;;5047514;28;38935;-77
2021/10/18 04:21:27;;;;;;;34.97;22.63;;;8.50;99.90;;;;;;5043937;28;48527;-77
2021/10/18 04:23:54;;;;;;;32.13;23.43;;;8.50;99.90;;;;;;5041005;28;38285;-77
2021/10/18 04:26:20;;;;;;;29.67;22.77;;;8.50;99.90;;;;;;5043144;28;37127;-77
2021/10/18 04:28:46;;;;;;;32.77;23.63;;;8.50;99.90;;;;;;5031621;28;39981;-77
2021/10/18 04:31:12;;;;;;;32.93;23.43;;;8.50;99.90;;;;;;5043347;28;38311;-77
2021/10/18 04:33:39;;;;;;;40.87;26.67;;;8.50;99.90;;;;;;5038711;28;38168;-77
2021/10/18 04:36:05;;;;;;;31.27;24.13;;;8.50;99.90;;;;;;5021949;28;36457;-77
2021/10/18 04:38:31;;;;;;;31.43;22.47;;;8.50;99.90;;;;;;5026670;28;39342;-77
2021/10/18 04:40:57;;;;;;;36.00;24.80;;;8.50;99.90;;;;;;5021746;28;39081;-77
2021/10/18 04:43:23;;;;;;;40.23;25.90;;;8.50;99.90;;;;;;5027713;28;38472;-77
2021/10/18 04:45:49;;;;;;;31.47;23.77;;;8.50;99.90;;;;;;5026470;28;37927;-77
2021/10/18 04:48:15;;;;;;;33.53;25.30;;;8.50;99.90;;;;;;5042151;28;36745;-77
2021/10/18 04:50:41;;;;;;;36.23;25.33;;;8.50;99.90;;;;;;5045418;28;37999;-77
2021/10/18 04:53:07;;;;;;;38.90;25.57;;;8.50;99.90;;;;;;5024776;28;39237;-77
2021/10/18 04:55:34;;;;;;;34.93;26.13;;;8.40;99.90;;;;;;5044820;28;37599;-77
2021/10/18 04:58:02;;;;;;;40.50;27.60;;;8.40;99.90;;;;;;5017460;28;39273;-77
2021/10/18 05:00:35;;;;;;;39.40;28.43;;;8.40;99.90;;;;;;5025987;28;47335;-78
2021/10/18 05:03:02;;;;;;;39.30;26.97;;;8.40;99.90;;;;;;5045410;28;38180;-76
2021/10/18 05:05:30;;;;;;;36.70;27.73;;;8.40;99.90;;;;;;5040233;28;38122;-78
2021/10/18 05:08:11;;;;;;;44.00;29.77;;;8.30;99.90;;;;;;5025533;28;39803;-78
2021/10/18 05:10:39;;;;;;;38.00;27.30;;;8.30;99.90;;;;;;5023545;28;47138;-78
2021/10/18 05:13:05;;;;;;;37.30;26.70;;;8.20;99.90;;;;;;5023308;28;37181;-78
2021/10/18 05:15:32;;;;;;;42.47;29.37;;;8.20;99.90;;;;;;5039700;28;37502;-77
2021/10/18 05:18:00;;;;;;;36.23;24.43;;;8.20;99.90;;;;;;5024796;28;40297;-77
2021/10/18 05:20:28;;;;;;;42.83;28.73;;;8.30;99.90;;;;;;5025407;28;41128;-77
2021/10/18 05:22:54;;;;;;;46.03;29.90;;;8.30;99.90;;;;;;5046586;28;38804;-77
2021/10/18 05:25:20;;;;;;;37.53;25.40;;;8.30;99.90;;;;;;5022764;28;38551;-78
2021/10/18 05:27:46;;;;;;;48.60;29.67;;;8.20;99.90;;;;;;5045475;28;38690;-77
2021/10/18 05:30:13;;;;;;;42.70;28.17;;;8.20;99.90;;;;;;5043773;28;38225;-77
2021/10/18 05:32:40;;;;;;;44.50;28.57;;;8.20;99.90;;;;;;5045460;28;41025;-77
2021/10/18 05:35:07;;;;;;;39.90;25.77;;;8.20;99.90;;;;;;5013718;28;38233;-77
2021/10/18 05:37:33;;;;;;;37.87;26.33;;;8.20;99.90;;;;;;5027723;28;39808;-77
2021/10/18 05:39:59;;;;;;;33.60;24.37;;;8.20;99.90;;;;;;5043755;28;38740;-78
2021/10/18 05:42:25;;;;;;;36.83;26.03;;;8.20;99.90;;;;;;5020172;28;38507;-78
2021/10/18 05:44:51;;;;;;;38.93;26.47;;;8.10;99.90;;;;;;5045681;28;37319;-77
2021/10/18 05:47:17;;;;;;;41.93;27.03;;;8.20;99.90;;;;;;5044821;28;38776;-77
2021/10/18 05:49:43;;;;;;;39.87;28.07;;;8.20;99.90;;;;;;5045525;28;38452;-77
2021/10/18 05:52:09;;;;;;;46.50;31.27;;;8.20;99.90;;;;;;5025655;28;39783;-78
2021/10/18 05:54:35;;;;;;;38.83;25.77;;;8.20;99.90;;;;;;5025852;28;39435;-78
2021/10/18 05:57:01;;;;;;;44.60;27.23;;;8.20;99.90;;;;;;5038773;28;39993;-78
2021/10/18 05:59:27;;;;;;;40.90;26.83;;;8.30;99.90;;;;;;5026414;28;46859;-78
2021/10/18 06:01:53;;;;;;;47.23;28.87;;;8.30;99.90;;;;;;5029128;28;38976;-78
2021/10/18 06:04:20;;;;;;;36.50;25.93;;;8.30;99.90;;;;;;5035920;28;38054;-78
2021/10/18 06:06:46;;;;;;;45.30;27.43;;;8.40;99.90;;;;;;5031537;28;40318;-78
2021/10/18 06:09:14;;;;;;;41.93;28.23;;;8.30;99.90;;;;;;5025508;28;37766;-77
2021/10/18 06:11:41;;;;;;;39.67;27.27;;;8.40;99.90;;;;;;5024005;28;37036;-78
2021/10/18 06:14:07;;;;;;;51.77;31.33;;;8.40;99.90;;;;;;5022003;28;38143;-78
2021/10/18 06:16:33;;;;;;;40.80;27.23;;;8.40;99.90;;;;;;5040523;28;38757;-78
2021/10/18 06:18:59;;;;;;;39.97;26.10;;;8.40;99.90;;;;;;5043381;28;38482;-77
2021/10/18 06:21:25;;;;;;;54.80;31.03;;;8.50;99.90;;;;;;5045342;28;38756;-78
2021/10/18 06:23:51;;;;;;;47.40;29.93;;;8.40;99.90;;;;;;5044083;28;37325;-78
2021/10/18 06:26:17;;;;;;;44.10;28.33;;;8.50;99.90;;;;;;5031105;28;39178;-77
2021/10/18 06:28:43;;;;;;;45.73;28.97;;;8.50;99.90;;;;;;5044734;28;39438;-78
2021/10/18 06:31:09;;;;;;;45.40;28.77;;;8.50;99.90;;;;;;5037557;28;39573;-78
2021/10/18 06:33:35;;;;;;;47.87;30.00;;;8.60;99.90;;;;;;5022500;28;38423;-78
2021/10/18 06:36:01;;;;;;;44.60;28.80;;;8.60;99.90;;;;;;5023535;28;39259;-77
2021/10/18 06:38:27;;;;;;;46.03;28.33;;;8.60;99.90;;;;;;5027246;28;38365;-78
2021/10/18 06:40:54;;;;;;;46.93;30.33;;;8.60;99.90;;;;;;5043507;28;37813;-78
2021/10/18 06:43:20;;;;;;;45.00;27.53;;;8.70;99.90;;;;;;5045432;28;38158;-78
2021/10/18 06:45:48;;;;;;;45.00;28.93;;;8.70;99.90;;;;;;5039886;28;39727;-78
2021/10/18 06:48:15;;;;;;;44.37;28.03;;;8.70;99.90;;;;;;5038298;28;40072;-78
2021/10/18 06:50:43;;;;;;;44.83;28.87;;;8.80;99.90;;;;;;5017839;28;39082;-78
2021/10/18 06:53:16;;;;;;;43.33;28.43;;;8.80;99.90;;;;;;5044318;28;37835;-77
2021/10/18 06:55:42;;;;;;;44.40;28.07;;;8.80;99.90;;;;;;5044653;28;38692;-78
2021/10/18 06:58:09;;;;;;;39.13;26.73;;;8.90;99.90;;;;;;5024904;28;39309;-78
2021/10/18 07:00:36;;;;;;;42.73;27.53;;;9.00;99.90;;;;;;5041463;28;39103;-78
2021/10/18 07:03:02;;;;;;;42.63;27.47;;;9.00;99.90;;;;;;5044041;28;37462;-77
2021/10/18 07:05:28;;;;;;;39.03;27.63;;;9.00;99.90;;;;;;5028355;28;39804;-77
2021/10/18 07:07:54;;;;;;;38.77;26.97;;;9.10;99.90;;;;;;5035234;28;37514;-77
2021/10/18 07:10:21;;;;;;;42.87;27.63;;;9.10;99.90;;;;;;5019426;28;38580;-77
2021/10/18 07:12:47;;;;;;;42.23;26.17;;;9.10;99.90;;;;;;5024817;28;37824;-76
2021/10/18 07:15:13;;;;;;;43.73;26.60;;;9.20;99.90;;;;;;5017117;28;39775;-77
2021/10/18 07:17:40;;;;;;;43.07;27.10;;;9.20;99.90;;;;;;5023565;28;38306;-77
2021/10/18 07:20:07;;;;;;;40.47;26.47;;;9.20;99.90;;;;;;5003930;28;38390;-75
2021/10/18 07:22:43;;;;;;;43.53;26.77;;;9.30;99.90;;;;;;5022352;28;37694;-76
2021/10/18 07:25:13;;;;;;;39.13;26.17;;;9.20;99.90;;;;;;5021897;28;40784;-77
2021/10/18 07:27:39;;;;;;;36.87;24.10;;;9.30;99.90;;;;;;5022837;28;38487;-77
2021/10/18 07:30:06;;;;;;;37.50;25.43;;;9.30;99.90;;;;;;5023413;28;38966;-78
2021/10/18 07:32:33;;;;;;;35.43;23.27;;;9.40;99.90;;;;;;5017055;28;47281;-77
2021/10/18 07:35:00;;;;;;;37.40;25.43;;;9.40;99.90;;;;;;5023350;28;39999;-78
2021/10/18 07:37:28;;;;;;;41.40;24.00;;;9.50;99.90;;;;;;5019368;28;39866;-77
2021/10/18 07:39:54;;;;;;;42.50;24.17;;;9.40;99.90;;;;;;5022481;28;38419;-79
2021/10/18 07:42:20;;;;;;;36.30;24.37;;;9.50;99.90;;;;;;5023415;28;38502;-78
2021/10/18 07:44:46;;;;;;;34.43;22.83;;;9.50;99.90;;;;;;5042368;28;39191;-79
2021/10/18 07:47:13;;;;;;;32.55;23.13;;;9.50;99.90;;;;;;5024539;28;38913;-79
2021/10/18 07:49:42;;;;;;;36.30;24.10;;;9.50;99.90;;;;;;5013085;28;38177;-79
2021/10/18 07:52:18;;;;;;;33.47;22.45;;;9.60;99.90;;;;;;5016102;28;38283;-79
2021/10/18 07:54:50;;;;;;;34.77;23.67;;;9.60;99.90;;;;;;5026196;28;38454;-79
2021/10/18 07:57:16;;;;;;;32.90;22.02;;;9.70;99.90;;;;;;5023263;28;37351;-79
2021/10/18 07:59:42;;;;;;;32.22;21.70;;;9.80;99.90;;;;;;5021381;28;37061;-79
2021/10/18 08:02:08;;;;;;;29.20;20.40;;;9.80;99.90;;;;;;5042697;28;37208;-79
2021/10/18 08:04:34;;;;;;;35.03;22.40;;;9.80;99.90;;;;;;5038010;28;39872;-79
2021/10/18 08:07:00;;;;;;;31.10;22.30;;;9.80;99.90;;;;;;5039669;28;38297;-79
2021/10/18 08:09:27;;;;;;;32.40;22.42;;;9.90;99.90;;;;;;5040390;28;38012;-81
2021/10/18 08:11:54;;;;;;;35.45;23.13;;;10.00;99.90;;;;;;5027137;28;37501;-79
2021/10/18 08:14:21;;;;;;;28.70;20.83;;;10.00;99.90;;;;;;5031456;28;39525;-79
2021/10/18 08:16:47;;;;;;;34.47;22.65;;;10.00;99.90;;;;;;5023742;28;37136;-79
2021/10/18 08:19:13;;;;;;;28.05;20.73;;;10.00;99.90;;;;;;5043514;28;38183;-81
2021/10/18 08:21:39;;;;;;;30.17;19.95;;;10.10;99.90;;;;;;5027893;28;36373;-79
2021/10/18 08:24:05;;;;;;;33.47;22.42;;;10.10;99.90;;;;;;5033469;28;38393;-79
2021/10/18 08:26:31;;;;;;;31.88;21.77;;;10.10;99.90;;;;;;5028784;28;38503;-79
2021/10/18 08:28:58;;;;;;;32.20;22.00;;;10.10;99.90;;;;;;5041799;28;37692;-79
2021/10/18 08:31:24;;;;;;;33.75;21.23;;;10.10;99.90;;;;;;5046676;28;37316;-79
2021/10/18 08:33:50;;;;;;;32.70;20.65;;;10.10;99.90;;;;;;5049802;28;38549;-79
2021/10/18 08:36:16;;;;;;;30.70;21.45;;;10.10;99.90;;;;;;5028870;28;38786;-79
2021/10/18 08:38:49;;;;;;;29.33;20.83;;;10.10;99.90;;;;;;5045778;28;38246;-79
2021/10/18 08:41:37;;;;;;;32.55;21.67;;;10.20;99.90;;;;;;5038001;28;37550;-79
2021/10/18 08:44:17;;;;;;;32.60;20.23;;;10.30;99.90;;;;;;5034899;28;39114;-78
2021/10/18 08:46:53;;;;;;;32.40;21.40;;;10.50;99.90;;;;;;5038136;28;38968;-79
2021/10/18 08:49:21;;;;;;;31.30;20.77;;;10.70;99.90;;;;;;5041206;28;38138;-79
2021/10/18 08:51:48;;;;;;;34.95;22.33;;;10.80;99.90;;;;;;5027079;28;37234;-79
2021/10/18 08:54:16;;;;;;;28.20;19.85;;;10.90;99.90;;;;;;5044846;28;39692;-79
2021/10/18 08:56:42;;;;;;;27.05;19.27;;;10.90;99.90;;;;;;5046224;28;39173;-79
2021/10/18 08:59:08;;;;;;;32.05;19.73;;;10.90;99.90;;;;;;5041972;28;38297;-78
2021/10/18 09:01:43;;;;;;;35.60;20.58;;;10.80;99.90;;;;;;5028223;28;36580;-78
2021/10/18 09:04:16;;;;;;;30.20;18.85;;;10.90;99.90;;;;;;5035865;28;37843;-78
2021/10/18 09:06:49;;;;;;;;;;;11.00;99.90;;;;;;5022961;28;38188;-79
2021/10/18 09:09:15;;;;;;;31.75;19.60;;;11.10;99.90;;;;;;5021682;28;34962;-78
2021/10/18 09:11:42;;;;;;;30.33;19.67;;;11.20;99.90;;;;;;5025083;28;36819;-78
2021/10/18 09:14:09;;;;;;;26.63;19.30;;;11.20;99.90;;;;;;5024831;28;38934;-78
2021/10/18 09:16:43;;;;;;;24.80;19.25;;;11.20;99.90;;;;;;5026332;28;38725;-79
2021/10/18 09:19:17;;;;;;;28.10;20.27;;;11.30;99.90;;;;;;5021883;28;37904;-79
2021/10/18 09:21:48;;;;;;;30.23;20.13;;;11.20;99.90;;;;;;5022364;28;37701;-79
2021/10/18 09:24:38;;;;;;;27.27;20.10;;;11.30;99.90;;;;;;5025334;28;37753;-79
2021/10/18 09:27:14;;;;;;;30.73;19.75;;;11.30;99.90;;;;;;5024782;28;37955;-80
2021/10/18 09:29:44;;;;;;;28.05;19.33;;;11.40;99.90;;;;;;5023956;28;38212;-79
2021/10/18 09:32:28;;;;;;;32.00;20.55;;;11.50;99.90;;;;;;5019895;28;37220;-79
2021/10/18 09:35:17;;;;;;;29.60;20.70;;;11.60;99.90;;;;;;5025497;28;37475;-79
2021/10/18 09:37:44;;;;;;;29.00;19.13;;;11.60;99.90;;;;;;5023487;28;48745;-79
2021/10/18 09:40:30;;;;;;;25.10;18.13;;;11.60;99.90;;;;;;5026506;28;38155;-80
2021/10/18 09:43:17;;;;;;;28.58;19.48;;;11.80;99.90;;;;;;5008353;28;36501;-79
2021/10/18 09:46:35;;;;;;;22.90;17.15;;;11.90;99.90;;;;;;5007338;28;48666;-79
2021/10/18 10:53:33;;;;;;;25.52;17.48;;;13.00;99.90;;;;;;5022552;28;38934;-80
2021/10/18 10:56:50;;;;;;;25.67;16.60;;;13.00;99.90;;;;;;5011719;28;39042;-80
2021/10/18 10:59:32;;;;;;;21.00;15.88;;;13.10;99.90;;;;;;5018949;28;48978;-80
2021/10/18 11:02:02;;;;;;;27.30;16.90;;;13.30;99.90;;;;;;5013586;28;38183;-80
2021/10/18 11:04:34;;;;;;;24.20;15.55;;;13.40;99.90;;;;;;5019700;28;47750;-80
2021/10/18 11:07:00;;;;;;;23.10;15.10;;;13.40;99.90;;;;;;5013551;28;39030;-80
2021/10/18 11:09:50;;;;;;;23.73;16.52;;;13.30;99.90;;;;;;5015396;28;39085;-80
2021/10/18 11:12:23;;;;;;;28.27;16.50;;;13.20;99.90;;;;;;5016775;28;38774;-80
2021/10/18 11:14:57;;;;;;;24.05;15.75;;;13.20;99.90;;;;;;5018580;28;40356;-80
2021/10/18 11:17:25;;;;;;;24.10;15.18;;;13.30;99.90;;;;;;5009792;28;37312;-80
2021/10/18 11:20:00;;;;;;;20.23;15.57;;;13.30;99.90;;;;;;5015787;28;39714;-80
2021/10/18 11:22:30;;;;;;;22.35;14.88;;;13.30;99.90;;;;;;5011822;28;40837;-79
2021/10/18 11:24:57;;;;;;;21.75;15.57;;;13.40;99.90;;;;;;5017039;28;39093;-80
2021/10/18 11:27:33;;;;;;;21.27;14.73;;;13.50;99.90;;;;;;5017720;28;39572;-79
2021/10/18 11:30:03;;;;;;;23.20;15.18;;;13.60;99.90;;;;;;5018259;28;38785;-79
2021/10/18 11:32:31;;;;;;;22.73;15.23;;;13.50;99.90;;;;;;5013690;28;47056;-79
2021/10/18 11:35:17;;;;;;;18.88;13.60;;;13.50;99.90;;;;;;5020095;28;39826;-78
2021/10/18 11:37:59;;;;;;;20.92;14.40;;;13.60;99.90;;;;;;5018180;28;47962;-80
2021/10/18 11:40:34;;;;;;;21.17;15.10;;;13.60;99.90;;;;;;5018266;28;39694;-79
2021/10/18 11:43:07;;;;;;;23.35;15.93;;;13.70;99.90;;;;;;5015797;28;39062;-80
2021/10/18 11:45:37;;;;;;;24.98;15.57;;;13.60;99.90;;;;;;5017551;28;48750;-80
2021/10/18 11:48:04;;;;;;;24.80;15.63;;;13.60;99.90;;;;;;5016349;28;38328;-80
2021/10/18 11:50:36;;;;;;;21.77;14.25;;;13.60;99.90;;;;;;5013274;28;38773;-78
2021/10/18 11:53:18;;;;;;;20.60;14.00;;;13.70;99.90;;;;;;5018253;28;37979;-78
2021/10/18 11:55:49;;;;;;;19.70;13.30;;;13.70;99.90;;;;;;5016991;28;40798;-80
2021/10/18 11:58:29;;;;;;;19.88;13.95;;;13.70;99.90;;;;;;5013917;28;40629;-79
2021/10/18 12:01:08;;;;;;;21.20;14.15;;;13.70;99.90;;;;;;5021164;28;38721;-80
2021/10/18 12:03:35;;;;;;;20.88;14.52;;;13.90;99.90;;;;;;5019376;28;47207;-79
2021/10/18 12:06:05;;;;;;;19.88;14.13;;;13.90;99.90;;;;;;5022954;28;38577;-76
2021/10/18 12:08:36;;;;;;;20.40;14.15;;;14.00;99.90;;;;;;5034609;28;38564;-78
2021/10/18 12:11:05;;;;;;;22.27;13.93;;;14.10;99.90;;;;;;5041491;28;38055;-80
2021/10/18 12:13:39;;;;;;;18.77;13.35;;;14.10;99.90;;;;;;5040578;28;39043;-79
2021/10/18 12:16:19;;;;;;;23.88;13.77;;;14.20;99.90;;;;;;5034691;28;39670;-79
2021/10/18 12:18:50;;;;;;;18.40;13.02;;;14.40;99.90;;;;;;5038306;28;39257;-79
2021/10/18 12:21:24;;;;;;;17.08;12.65;;;14.30;99.90;;;;;;5039198;28;38228;-79
2021/10/18 12:23:57;;;;;;;19.45;12.73;;;14.30;99.90;;;;;;5024676;28;38094;-79
2021/10/18 12:26:29;;;;;;;18.55;12.60;;;14.40;99.90;;;;;;5037043;28;39428;-78
2021/10/18 12:29:05;;;;;;;20.08;13.13;;;14.30;99.90;;;;;;5036833;28;39468;-79
2021/10/18 12:31:53;;;;;;;18.83;13.02;;;14.40;99.90;;;;;;5014890;28;48177;-79
2021/10/18 12:34:22;;;;;;;18.38;13.20;;;14.60;99.90;;;;;;5020355;28;37704;-79
2021/10/18 12:37:00;;;;;;;19.10;12.95;;;14.70;99.90;;;;;;5019827;28;39001;-79
2021/10/18 12:39:54;;;;;;;19.95;12.43;;;14.70;99.90;;;;;;5036487;28;41292;-78
2021/10/18 12:42:20;;;;;;;18.33;12.02;;;14.80;99.90;;;;;;5039147;28;38120;-78
2021/10/18 12:44:48;;;;;;;18.50;12.85;;;15.00;99.90;;;;;;5029447;28;38684;-78
2021/10/18 12:47:20;;;;;;;18.58;12.20;;;15.00;99.90;;;;;;5021705;28;39738;-78
2021/10/18 12:49:54;;;;;;;18.17;11.55;;;15.00;99.90;;;;;;5037286;28;39287;-78
2021/10/18 12:52:32;;;;;;;21.20;12.13;;;15.00;99.90;;;;;;5042691;28;38924;-78
2021/10/18 12:54:58;;;;;;;18.13;12.05;;;15.00;99.90;;;;;;5024861;28;38220;-79
2021/10/18 12:57:27;;;;;;;17.05;12.18;;;15.10;99.90;;;;;;5018924;28;39973;-79
2021/10/18 13:00:06;;;;;;;15.93;11.75;;;15.00;99.90;;;;;;5020137;28;38797;-79
2021/10/18 13:02:39;;;;;;;16.88;11.45;;;15.00;99.90;;;;;;5025049;28;47819;-79
2021/10/18 13:05:05;;;;;;;15.70;11.43;;;15.00;99.90;;;;;;5037517;28;39523;-78
2021/10/18 13:07:32;;;;;;;19.50;12.02;;;15.00;99.90;;;;;;5022422;28;38378;-79
2021/10/18 13:09:58;;;;;;;14.45;10.95;;;15.00;99.90;;;;;;5019411;28;38789;-79
2021/10/18 13:12:28;;;;;;;17.13;11.13;;;15.10;99.90;;;;;;5022136;28;38973;-79
2021/10/18 13:14:56;;;;;;;17.40;11.18;;;15.00;99.90;;;;;;5025549;28;37608;-79
2021/10/18 13:17:25;;;;;;;16.60;11.15;;;15.20;99.90;;;;;;5018427;28;39005;-79
2021/10/18 13:19:52;;;;;;;17.88;11.05;;;15.20;99.90;;;;;;5022171;28;38333;-78
2021/10/18 13:22:19;;;;;;;17.75;11.68;;;15.30;99.90;;;;;;5021494;28;38266;-79
2021/10/18 13:24:46;;;;;;;16.85;11.10;;;15.30;99.90;;;;;;5024049;28;37536;-79
2021/10/18 13:27:12;;;;;;;14.68;10.57;;;15.50;99.90;;;;;;5020505;28;38963;-79
2021/10/18 13:29:39;;;;;;;17.05;10.10;;;15.80;99.90;;;;;;5020932;28;38379;-79
2021/10/18 13:32:05;;;;;;;16.33;10.05;;;15.80;99.90;;;;;;5020648;28;38762;-79
2021/10/18 13:34:32;;;;;;;16.88;11.38;;;15.60;99.90;;;;;;5019903;28;37263;-80
2021/10/18 13:36:59;;;;;;;13.90;10.07;;;15.60;99.90;;;;;;5023985;28;40039;-79
2021/10/18 13:39:26;;;;;;;13.02;10.13;;;15.60;99.90;;;;;;5019464;28;39093;-79
2021/10/18 13:41:53;;;;;;;15.38;10.50;;;15.60;99.90;;;;;;5009497;28;38778;-79
2021/10/18 13:44:19;;;;;;;15.07;9.98;;;15.60;99.90;;;;;;5020004;28;37867;-79